sensor_id;sensor_type;location;lat;lon;timestamp;P1;durP1;ratioP1;P2;durP2;ratioP2
13571;SDS011;6857;53.484;10.216;2023-02-28T00:00:50;7.93;;;4.97;;
13571;SDS011;6857;53.484;10.216;2023-02-28T00:03:16;7.87;;;4.70;;
13571;SDS011;6857;53.484;10.216;2023-02-28T00:05:42;10.00;;;5.27;;
13571;SDS011;6857;53.484;10.216;2023-02-28T00:08:08;8.63;;;4.50;;
13571;SDS011;6857;53.484;10.216;2023-02-28T00:10:34;6.10;;;4.27;;
13571;SDS011;6857;53.484;10.216;2023-02-28T00:13:02;8.50;;;4.53;;
13571;SDS011;6857;53.484;10.216;2023-02-28T00:15:29;8.33;;;4.57;;
13571;SDS011;6857;53.484;10.216;2023-02-28T00:17:55;9.73;;;4.50;;
13571;SDS011;6857;53.484;10.216;2023-02-28T00:20:21;6.53;;;4.13;;
13571;SDS011;6857;53.484;10.216;2023-02-28T00:22:48;9.33;;;4.37;;
13571;SDS011;6857;53.484;10.216;2023-02-28T00:25:15;11.10;;;4.93;;
13571;SDS011;6857;53.484;10.216;2023-02-28T00:27:41;8.10;;;5.20;;
13571;SDS011;6857;53.484;10.216;2023-02-28T00:30:11;7.03;;;4.13;;
13571;SDS011;6857;53.484;10.216;2023-02-28T00:32:37;11.00;;;5.10;;
13571;SDS011;6857;53.484;10.216;2023-02-28T00:35:03;8.13;;;4.43;;
13571;SDS011;6857;53.484;10.216;2023-02-28T00:37:30;8.70;;;5.07;;
13571;SDS011;6857;53.484;10.216;2023-02-28T00:39:56;6.73;;;4.00;;
13571;SDS011;6857;53.484;10.216;2023-02-28T00:42:22;8.67;;;4.53;;
13571;SDS011;6857;53.484;10.216;2023-02-28T00:44:48;6.00;;;3.77;;
13571;SDS011;6857;53.484;10.216;2023-02-28T00:47:14;7.20;;;3.97;;
13571;SDS011;6857;53.484;10.216;2023-02-28T00:49:40;6.23;;;3.83;;
13571;SDS011;6857;53.484;10.216;2023-02-28T00:52:06;6.57;;;4.03;;
13571;SDS011;6857;53.484;10.216;2023-02-28T00:54:32;6.63;;;3.70;;
13571;SDS011;6857;53.484;10.216;2023-02-28T00:56:58;9.60;;;3.63;;
13571;SDS011;6857;53.484;10.216;2023-02-28T00:59:24;7.37;;;3.93;;
13571;SDS011;6857;53.484;10.216;2023-02-28T01:01:49;5.87;;;3.73;;
13571;SDS011;6857;53.484;10.216;2023-02-28T01:04:15;6.73;;;3.63;;
13571;SDS011;6857;53.484;10.216;2023-02-28T01:06:41;7.37;;;3.83;;
13571;SDS011;6857;53.484;10.216;2023-02-28T01:09:07;7.30;;;4.30;;
13571;SDS011;6857;53.484;10.216;2023-02-28T01:11:34;10.17;;;4.23;;
13571;SDS011;6857;53.484;10.216;2023-02-28T01:14:00;6.20;;;4.23;;
13571;SDS011;6857;53.484;10.216;2023-02-28T01:16:27;7.03;;;4.60;;
13571;SDS011;6857;53.484;10.216;2023-02-28T01:18:53;6.70;;;5.07;;
13571;SDS011;6857;53.484;10.216;2023-02-28T01:21:20;6.20;;;4.17;;
13571;SDS011;6857;53.484;10.216;2023-02-28T01:23:46;12.07;;;4.33;;
13571;SDS011;6857;53.484;10.216;2023-02-28T01:26:14;8.20;;;4.10;;
13571;SDS011;6857;53.484;10.216;2023-02-28T01:28:40;8.37;;;3.77;;
13571;SDS011;6857;53.484;10.216;2023-02-28T01:31:06;8.17;;;4.40;;
13571;SDS011;6857;53.484;10.216;2023-02-28T01:33:33;7.80;;;4.23;;
13571;SDS011;6857;53.484;10.216;2023-02-28T01:36:09;10.23;;;4.13;;
13571;SDS011;6857;53.484;10.216;2023-02-28T01:38:36;7.30;;;4.10;;
13571;SDS011;6857;53.484;10.216;2023-02-28T01:41:02;7.73;;;4.70;;
13571;SDS011;6857;53.484;10.216;2023-02-28T01:46:09;9.80;;;4.47;;
13571;SDS011;6857;53.484;10.216;2023-02-28T01:48:37;7.27;;;4.80;;
13571;SDS011;6857;53.484;10.216;2023-02-28T01:51:05;8.33;;;4.60;;
13571;SDS011;6857;53.484;10.216;2023-02-28T01:53:38;8.30;;;4.00;;
13571;SDS011;6857;53.484;10.216;2023-02-28T01:56:07;7.70;;;4.17;;
13571;SDS011;6857;53.484;10.216;2023-02-28T01:58:34;9.43;;;3.53;;
13571;SDS011;6857;53.484;10.216;2023-02-28T02:01:02;11.13;;;4.40;;
13571;SDS011;6857;53.484;10.216;2023-02-28T02:03:28;7.00;;;3.70;;
13571;SDS011;6857;53.484;10.216;2023-02-28T02:05:54;10.20;;;4.67;;
13571;SDS011;6857;53.484;10.216;2023-02-28T02:08:24;9.33;;;4.10;;
13571;SDS011;6857;53.484;10.216;2023-02-28T02:10:52;6.87;;;3.83;;
13571;SDS011;6857;53.484;10.216;2023-02-28T02:16:12;5.20;;;3.33;;
13571;SDS011;6857;53.484;10.216;2023-02-28T02:18:46;7.30;;;3.23;;
13571;SDS011;6857;53.484;10.216;2023-02-28T02:26:52;6.17;;;3.83;;
13571;SDS011;6857;53.484;10.216;2023-02-28T02:37:43;6.50;;;3.80;;
13571;SDS011;6857;53.484;10.216;2023-02-28T02:40:16;7.27;;;3.97;;
13571;SDS011;6857;53.484;10.216;2023-02-28T02:42:47;8.90;;;4.17;;
13571;SDS011;6857;53.484;10.216;2023-02-28T02:45:17;9.43;;;4.60;;
13571;SDS011;6857;53.484;10.216;2023-02-28T02:47:45;6.80;;;3.97;;
13571;SDS011;6857;53.484;10.216;2023-02-28T02:50:13;8.13;;;4.23;;
13571;SDS011;6857;53.484;10.216;2023-02-28T02:52:41;7.13;;;3.80;;
13571;SDS011;6857;53.484;10.216;2023-02-28T02:55:09;6.73;;;3.93;;
13571;SDS011;6857;53.484;10.216;2023-02-28T02:57:38;7.10;;;4.00;;
13571;SDS011;6857;53.484;10.216;2023-02-28T03:00:06;5.07;;;3.70;;
13571;SDS011;6857;53.484;10.216;2023-02-28T03:02:33;6.73;;;3.60;;
13571;SDS011;6857;53.484;10.216;2023-02-28T03:05:01;7.23;;;3.77;;
13571;SDS011;6857;53.484;10.216;2023-02-28T03:07:28;6.67;;;3.83;;
13571;SDS011;6857;53.484;10.216;2023-02-28T03:09:55;4.77;;;3.63;;
13571;SDS011;6857;53.484;10.216;2023-02-28T03:12:23;7.27;;;3.60;;
13571;SDS011;6857;53.484;10.216;2023-02-28T03:15:04;5.67;;;3.87;;
13571;SDS011;6857;53.484;10.216;2023-02-28T03:25:27;7.50;;;3.70;;
13571;SDS011;6857;53.484;10.216;2023-02-28T03:30:24;7.10;;;3.93;;
13571;SDS011;6857;53.484;10.216;2023-02-28T03:35:24;5.97;;;4.27;;
13571;SDS011;6857;53.484;10.216;2023-02-28T03:37:53;6.40;;;3.80;;
13571;SDS011;6857;53.484;10.216;2023-02-28T03:40:21;7.90;;;4.30;;
13571;SDS011;6857;53.484;10.216;2023-02-28T03:42:49;6.87;;;3.93;;
13571;SDS011;6857;53.484;10.216;2023-02-28T03:45:28;9.37;;;4.17;;
13571;SDS011;6857;53.484;10.216;2023-02-28T03:48:00;8.97;;;3.73;;
13571;SDS011;6857;53.484;10.216;2023-02-28T03:50:27;7.33;;;4.00;;
13571;SDS011;6857;53.484;10.216;2023-02-28T03:53:00;8.20;;;4.40;;
13571;SDS011;6857;53.484;10.216;2023-02-28T03:55:32;7.40;;;4.17;;
13571;SDS011;6857;53.484;10.216;2023-02-28T03:58:01;8.83;;;4.10;;
13571;SDS011;6857;53.484;10.216;2023-02-28T04:00:31;6.57;;;4.03;;
13571;SDS011;6857;53.484;10.216;2023-02-28T04:02:58;5.97;;;4.00;;
13571;SDS011;6857;53.484;10.216;2023-02-28T04:05:24;8.67;;;3.97;;
13571;SDS011;6857;53.484;10.216;2023-02-28T04:07:51;6.50;;;4.13;;
13571;SDS011;6857;53.484;10.216;2023-02-28T04:10:18;5.00;;;3.83;;
13571;SDS011;6857;53.484;10.216;2023-02-28T04:12:44;6.63;;;4.13;;
13571;SDS011;6857;53.484;10.216;2023-02-28T04:15:10;6.07;;;3.50;;
13571;SDS011;6857;53.484;10.216;2023-02-28T04:17:36;6.77;;;4.40;;
13571;SDS011;6857;53.484;10.216;2023-02-28T04:20:02;5.80;;;4.07;;
13571;SDS011;6857;53.484;10.216;2023-02-28T04:22:28;7.97;;;4.07;;
13571;SDS011;6857;53.484;10.216;2023-02-28T04:24:54;9.33;;;4.57;;
13571;SDS011;6857;53.484;10.216;2023-02-28T04:27:21;6.07;;;4.07;;
13571;SDS011;6857;53.484;10.216;2023-02-28T04:29:47;7.67;;;4.03;;
13571;SDS011;6857;53.484;10.216;2023-02-28T04:32:13;6.37;;;4.20;;
13571;SDS011;6857;53.484;10.216;2023-02-28T04:34:39;8.73;;;4.13;;
13571;SDS011;6857;53.484;10.216;2023-02-28T04:37:05;8.53;;;4.00;;
13571;SDS011;6857;53.484;10.216;2023-02-28T04:39:34;9.77;;;4.30;;
13571;SDS011;6857;53.484;10.216;2023-02-28T04:42:00;8.47;;;4.63;;
13571;SDS011;6857;53.484;10.216;2023-02-28T04:44:26;5.93;;;4.03;;
13571;SDS011;6857;53.484;10.216;2023-02-28T04:46:52;9.70;;;4.47;;
13571;SDS011;6857;53.484;10.216;2023-02-28T04:49:18;6.23;;;3.80;;
13571;SDS011;6857;53.484;10.216;2023-02-28T04:51:44;8.00;;;4.63;;
13571;SDS011;6857;53.484;10.216;2023-02-28T04:54:10;9.83;;;4.63;;
13571;SDS011;6857;53.484;10.216;2023-02-28T04:56:36;7.80;;;4.37;;
13571;SDS011;6857;53.484;10.216;2023-02-28T04:59:02;5.73;;;3.90;;
13571;SDS011;6857;53.484;10.216;2023-02-28T05:01:29;5.50;;;3.80;;
13571;SDS011;6857;53.484;10.216;2023-02-28T05:03:56;6.43;;;3.77;;
13571;SDS011;6857;53.484;10.216;2023-02-28T05:06:23;7.67;;;4.30;;
13571;SDS011;6857;53.484;10.216;2023-02-28T05:08:49;7.57;;;4.13;;
13571;SDS011;6857;53.484;10.216;2023-02-28T05:11:17;10.17;;;6.00;;
13571;SDS011;6857;53.484;10.216;2023-02-28T05:13:43;7.60;;;4.77;;
13571;SDS011;6857;53.484;10.216;2023-02-28T05:16:09;6.10;;;3.83;;
13571;SDS011;6857;53.484;10.216;2023-02-28T05:18:36;7.33;;;4.03;;
13571;SDS011;6857;53.484;10.216;2023-02-28T05:21:02;7.90;;;4.13;;
13571;SDS011;6857;53.484;10.216;2023-02-28T05:23:28;9.00;;;4.50;;
13571;SDS011;6857;53.484;10.216;2023-02-28T05:25:54;6.30;;;4.60;;
13571;SDS011;6857;53.484;10.216;2023-02-28T05:28:20;9.90;;;4.60;;
13571;SDS011;6857;53.484;10.216;2023-02-28T05:30:46;8.07;;;4.80;;
13571;SDS011;6857;53.484;10.216;2023-02-28T05:33:12;5.67;;;4.00;;
13571;SDS011;6857;53.484;10.216;2023-02-28T05:35:39;10.10;;;3.87;;
13571;SDS011;6857;53.484;10.216;2023-02-28T05:38:05;11.63;;;4.30;;
13571;SDS011;6857;53.484;10.216;2023-02-28T05:40:31;13.43;;;6.07;;
13571;SDS011;6857;53.484;10.216;2023-02-28T05:42:57;21.17;;;10.90;;
13571;SDS011;6857;53.484;10.216;2023-02-28T05:45:23;18.47;;;9.33;;
13571;SDS011;6857;53.484;10.216;2023-02-28T05:47:52;10.03;;;5.50;;
13571;SDS011;6857;53.484;10.216;2023-02-28T05:50:18;8.03;;;4.80;;
13571;SDS011;6857;53.484;10.216;2023-02-28T05:52:48;8.50;;;5.00;;
13571;SDS011;6857;53.484;10.216;2023-02-28T05:55:14;10.37;;;4.40;;
13571;SDS011;6857;53.484;10.216;2023-02-28T05:57:40;8.53;;;4.43;;
13571;SDS011;6857;53.484;10.216;2023-02-28T06:00:07;8.90;;;4.70;;
13571;SDS011;6857;53.484;10.216;2023-02-28T06:02:33;10.37;;;4.90;;
13571;SDS011;6857;53.484;10.216;2023-02-28T06:04:59;8.47;;;5.13;;
13571;SDS011;6857;53.484;10.216;2023-02-28T06:07:25;8.20;;;5.00;;
13571;SDS011;6857;53.484;10.216;2023-02-28T06:09:51;12.53;;;6.10;;
13571;SDS011;6857;53.484;10.216;2023-02-28T06:12:17;9.67;;;5.30;;
13571;SDS011;6857;53.484;10.216;2023-02-28T06:14:43;13.53;;;7.00;;
13571;SDS011;6857;53.484;10.216;2023-02-28T06:17:09;12.97;;;5.63;;
13571;SDS011;6857;53.484;10.216;2023-02-28T06:19:36;18.70;;;8.57;;
13571;SDS011;6857;53.484;10.216;2023-02-28T06:22:03;11.50;;;5.43;;
13571;SDS011;6857;53.484;10.216;2023-02-28T06:24:30;8.80;;;5.17;;
13571;SDS011;6857;53.484;10.216;2023-02-28T06:26:56;8.93;;;5.03;;
13571;SDS011;6857;53.484;10.216;2023-02-28T06:29:23;8.10;;;4.97;;
13571;SDS011;6857;53.484;10.216;2023-02-28T06:31:49;12.90;;;6.03;;
13571;SDS011;6857;53.484;10.216;2023-02-28T06:34:16;18.00;;;8.43;;
13571;SDS011;6857;53.484;10.216;2023-02-28T06:36:42;8.27;;;4.93;;
13571;SDS011;6857;53.484;10.216;2023-02-28T06:39:08;10.40;;;4.37;;
13571;SDS011;6857;53.484;10.216;2023-02-28T06:41:34;8.70;;;4.37;;
13571;SDS011;6857;53.484;10.216;2023-02-28T06:44:12;11.37;;;5.77;;
13571;SDS011;6857;53.484;10.216;2023-02-28T06:46:42;14.70;;;6.87;;
13571;SDS011;6857;53.484;10.216;2023-02-28T06:49:08;12.43;;;6.97;;
13571;SDS011;6857;53.484;10.216;2023-02-28T06:51:35;10.13;;;5.40;;
13571;SDS011;6857;53.484;10.216;2023-02-28T06:54:01;13.27;;;5.80;;
13571;SDS011;6857;53.484;10.216;2023-02-28T06:56:27;13.87;;;6.47;;
13571;SDS011;6857;53.484;10.216;2023-02-28T06:58:53;16.27;;;7.30;;
13571;SDS011;6857;53.484;10.216;2023-02-28T07:01:19;18.43;;;6.37;;
13571;SDS011;6857;53.484;10.216;2023-02-28T07:03:48;11.07;;;5.80;;
13571;SDS011;6857;53.484;10.216;2023-02-28T07:06:17;10.30;;;5.83;;
13571;SDS011;6857;53.484;10.216;2023-02-28T07:08:43;11.97;;;5.93;;
13571;SDS011;6857;53.484;10.216;2023-02-28T07:11:09;10.63;;;5.20;;
13571;SDS011;6857;53.484;10.216;2023-02-28T07:13:35;8.87;;;5.60;;
13571;SDS011;6857;53.484;10.216;2023-02-28T07:16:03;12.27;;;5.80;;
13571;SDS011;6857;53.484;10.216;2023-02-28T07:18:29;13.17;;;7.00;;
13571;SDS011;6857;53.484;10.216;2023-02-28T07:20:55;21.80;;;9.97;;
13571;SDS011;6857;53.484;10.216;2023-02-28T07:23:21;8.40;;;5.50;;
13571;SDS011;6857;53.484;10.216;2023-02-28T07:25:47;10.43;;;5.73;;
13571;SDS011;6857;53.484;10.216;2023-02-28T07:28:13;12.70;;;6.20;;
13571;SDS011;6857;53.484;10.216;2023-02-28T07:30:39;13.47;;;7.00;;
13571;SDS011;6857;53.484;10.216;2023-02-28T07:33:06;10.03;;;7.03;;
13571;SDS011;6857;53.484;10.216;2023-02-28T07:35:32;15.20;;;8.07;;
13571;SDS011;6857;53.484;10.216;2023-02-28T07:37:58;11.17;;;7.40;;
13571;SDS011;6857;53.484;10.216;2023-02-28T07:40:24;16.73;;;9.53;;
13571;SDS011;6857;53.484;10.216;2023-02-28T07:42:50;10.73;;;6.00;;
13571;SDS011;6857;53.484;10.216;2023-02-28T07:45:17;15.47;;;7.43;;
13571;SDS011;6857;53.484;10.216;2023-02-28T07:47:43;10.10;;;5.63;;
13571;SDS011;6857;53.484;10.216;2023-02-28T07:50:10;8.50;;;5.43;;
13571;SDS011;6857;53.484;10.216;2023-02-28T07:52:36;8.33;;;5.60;;
13571;SDS011;6857;53.484;10.216;2023-02-28T07:55:03;8.30;;;5.33;;
13571;SDS011;6857;53.484;10.216;2023-02-28T07:57:29;10.37;;;5.40;;
13571;SDS011;6857;53.484;10.216;2023-02-28T07:59:55;13.83;;;6.50;;
13571;SDS011;6857;53.484;10.216;2023-02-28T08:02:21;9.97;;;5.37;;
13571;SDS011;6857;53.484;10.216;2023-02-28T08:04:47;10.03;;;5.63;;
13571;SDS011;6857;53.484;10.216;2023-02-28T08:07:14;10.70;;;5.83;;
13571;SDS011;6857;53.484;10.216;2023-02-28T08:09:41;8.93;;;6.13;;
13571;SDS011;6857;53.484;10.216;2023-02-28T08:12:07;11.80;;;6.40;;
13571;SDS011;6857;53.484;10.216;2023-02-28T08:14:33;10.37;;;6.03;;
13571;SDS011;6857;53.484;10.216;2023-02-28T08:16:59;8.90;;;5.67;;
13571;SDS011;6857;53.484;10.216;2023-02-28T08:19:25;9.60;;;6.07;;
13571;SDS011;6857;53.484;10.216;2023-02-28T08:21:51;6.83;;;5.20;;
13571;SDS011;6857;53.484;10.216;2023-02-28T08:24:18;8.30;;;5.10;;
13571;SDS011;6857;53.484;10.216;2023-02-28T08:26:43;7.90;;;5.27;;
13571;SDS011;6857;53.484;10.216;2023-02-28T08:29:09;8.90;;;5.07;;
13571;SDS011;6857;53.484;10.216;2023-02-28T08:31:35;8.87;;;5.50;;
13571;SDS011;6857;53.484;10.216;2023-02-28T08:34:05;6.53;;;5.27;;
13571;SDS011;6857;53.484;10.216;2023-02-28T08:36:31;9.77;;;5.37;;
13571;SDS011;6857;53.484;10.216;2023-02-28T08:38:57;7.97;;;4.97;;
13571;SDS011;6857;53.484;10.216;2023-02-28T08:41:24;8.07;;;5.03;;
13571;SDS011;6857;53.484;10.216;2023-02-28T08:43:51;10.10;;;5.37;;
13571;SDS011;6857;53.484;10.216;2023-02-28T08:46:17;6.03;;;4.97;;
13571;SDS011;6857;53.484;10.216;2023-02-28T08:48:43;7.43;;;5.43;;
13571;SDS011;6857;53.484;10.216;2023-02-28T08:51:11;10.13;;;5.40;;
13571;SDS011;6857;53.484;10.216;2023-02-28T08:53:37;8.13;;;4.60;;
13571;SDS011;6857;53.484;10.216;2023-02-28T08:56:08;8.50;;;5.27;;
13571;SDS011;6857;53.484;10.216;2023-02-28T08:58:34;13.87;;;5.13;;
13571;SDS011;6857;53.484;10.216;2023-02-28T09:01:06;8.80;;;4.90;;
13571;SDS011;6857;53.484;10.216;2023-02-28T09:03:32;7.73;;;4.47;;
13571;SDS011;6857;53.484;10.216;2023-02-28T09:05:59;13.30;;;6.60;;
13571;SDS011;6857;53.484;10.216;2023-02-28T09:08:26;10.53;;;4.40;;
13571;SDS011;6857;53.484;10.216;2023-02-28T09:10:53;6.43;;;4.53;;
13571;SDS011;6857;53.484;10.216;2023-02-28T09:13:21;7.80;;;4.70;;
13571;SDS011;6857;53.484;10.216;2023-02-28T09:15:47;6.60;;;4.50;;
13571;SDS011;6857;53.484;10.216;2023-02-28T09:18:13;9.90;;;4.47;;
13571;SDS011;6857;53.484;10.216;2023-02-28T09:20:40;7.97;;;3.70;;
13571;SDS011;6857;53.484;10.216;2023-02-28T09:23:06;7.87;;;4.40;;
13571;SDS011;6857;53.484;10.216;2023-02-28T09:25:33;4.43;;;3.50;;
13571;SDS011;6857;53.484;10.216;2023-02-28T09:27:59;9.17;;;3.20;;
13571;SDS011;6857;53.484;10.216;2023-02-28T09:30:25;6.93;;;3.43;;
13571;SDS011;6857;53.484;10.216;2023-02-28T09:32:51;5.87;;;3.47;;
13571;SDS011;6857;53.484;10.216;2023-02-28T09:35:19;6.03;;;3.77;;
13571;SDS011;6857;53.484;10.216;2023-02-28T09:37:46;4.87;;;3.67;;
13571;SDS011;6857;53.484;10.216;2023-02-28T09:40:12;5.30;;;3.00;;
13571;SDS011;6857;53.484;10.216;2023-02-28T09:42:39;4.20;;;3.13;;
13571;SDS011;6857;53.484;10.216;2023-02-28T09:45:06;5.77;;;3.53;;
13571;SDS011;6857;53.484;10.216;2023-02-28T09:47:36;6.47;;;4.07;;
13571;SDS011;6857;53.484;10.216;2023-02-28T09:50:17;4.73;;;3.20;;
13571;SDS011;6857;53.484;10.216;2023-02-28T09:52:46;7.80;;;2.73;;
13571;SDS011;6857;53.484;10.216;2023-02-28T09:57:40;5.00;;;3.10;;
13571;SDS011;6857;53.484;10.216;2023-02-28T10:00:13;7.93;;;3.50;;
13571;SDS011;6857;53.484;10.216;2023-02-28T10:02:46;3.53;;;2.40;;
13571;SDS011;6857;53.484;10.216;2023-02-28T10:05:17;6.60;;;3.03;;
13571;SDS011;6857;53.484;10.216;2023-02-28T10:10:20;4.73;;;2.13;;
13571;SDS011;6857;53.484;10.216;2023-02-28T10:12:47;4.00;;;2.60;;
13571;SDS011;6857;53.484;10.216;2023-02-28T10:15:14;4.93;;;2.77;;
13571;SDS011;6857;53.484;10.216;2023-02-28T10:17:42;4.20;;;2.20;;
13571;SDS011;6857;53.484;10.216;2023-02-28T10:20:12;4.60;;;1.80;;
13571;SDS011;6857;53.484;10.216;2023-02-28T10:22:50;3.67;;;1.80;;
13571;SDS011;6857;53.484;10.216;2023-02-28T10:25:21;2.27;;;1.70;;
13571;SDS011;6857;53.484;10.216;2023-02-28T10:27:48;2.37;;;1.47;;
13571;SDS011;6857;53.484;10.216;2023-02-28T10:30:14;4.97;;;2.50;;
13571;SDS011;6857;53.484;10.216;2023-02-28T10:32:42;5.20;;;3.07;;
13571;SDS011;6857;53.484;10.216;2023-02-28T10:35:14;3.20;;;0.90;;
13571;SDS011;6857;53.484;10.216;2023-02-28T10:37:41;2.00;;;1.00;;
13571;SDS011;6857;53.484;10.216;2023-02-28T10:42:39;1.80;;;1.10;;
13571;SDS011;6857;53.484;10.216;2023-02-28T10:45:15;0.93;;;0.77;;
13571;SDS011;6857;53.484;10.216;2023-02-28T10:47:54;1.30;;;0.97;;
13571;SDS011;6857;53.484;10.216;2023-02-28T10:50:28;1.27;;;1.10;;
13571;SDS011;6857;53.484;10.216;2023-02-28T10:52:55;3.30;;;1.13;;
13571;SDS011;6857;53.484;10.216;2023-02-28T10:55:30;6.20;;;3.50;;
13571;SDS011;6857;53.484;10.216;2023-02-28T10:57:56;2.07;;;1.33;;
13571;SDS011;6857;53.484;10.216;2023-02-28T11:00:23;4.03;;;2.10;;
13571;SDS011;6857;53.484;10.216;2023-02-28T11:02:52;2.37;;;1.40;;
13571;SDS011;6857;53.484;10.216;2023-02-28T11:07:54;2.20;;;1.17;;
13571;SDS011;6857;53.484;10.216;2023-02-28T11:10:21;2.63;;;1.23;;
13571;SDS011;6857;53.484;10.216;2023-02-28T11:12:50;2.17;;;1.40;;
13571;SDS011;6857;53.484;10.216;2023-02-28T11:15:24;2.77;;;1.10;;
13571;SDS011;6857;53.484;10.216;2023-02-28T11:17:55;2.63;;;1.43;;
13571;SDS011;6857;53.484;10.216;2023-02-28T11:20:22;2.97;;;1.33;;
13571;SDS011;6857;53.484;10.216;2023-02-28T11:22:49;2.33;;;1.10;;
13571;SDS011;6857;53.484;10.216;2023-02-28T11:25:19;2.83;;;1.10;;
13571;SDS011;6857;53.484;10.216;2023-02-28T11:27:47;1.70;;;1.10;;
13571;SDS011;6857;53.484;10.216;2023-02-28T11:30:28;1.63;;;1.10;;
13571;SDS011;6857;53.484;10.216;2023-02-28T11:32:54;1.20;;;1.10;;
13571;SDS011;6857;53.484;10.216;2023-02-28T11:35:28;2.53;;;1.40;;
13571;SDS011;6857;53.484;10.216;2023-02-28T11:37:55;2.27;;;1.50;;
13571;SDS011;6857;53.484;10.216;2023-02-28T11:40:23;2.00;;;1.17;;
13571;SDS011;6857;53.484;10.216;2023-02-28T11:45:43;2.53;;;1.40;;
13571;SDS011;6857;53.484;10.216;2023-02-28T11:50:39;3.50;;;1.80;;
13571;SDS011;6857;53.484;10.216;2023-02-28T11:53:19;3.57;;;1.60;;
13571;SDS011;6857;53.484;10.216;2023-02-28T11:55:49;4.93;;;2.20;;
13571;SDS011;6857;53.484;10.216;2023-02-28T12:00:50;2.97;;;2.40;;
13571;SDS011;6857;53.484;10.216;2023-02-28T12:03:24;2.83;;;1.73;;
13571;SDS011;6857;53.484;10.216;2023-02-28T12:08:43;1.40;;;1.00;;
13571;SDS011;6857;53.484;10.216;2023-02-28T12:13:48;3.20;;;1.43;;
13571;SDS011;6857;53.484;10.216;2023-02-28T12:16:24;1.43;;;1.17;;
13571;SDS011;6857;53.484;10.216;2023-02-28T12:18:56;1.83;;;1.23;;
13571;SDS011;6857;53.484;10.216;2023-02-28T12:21:36;2.17;;;1.47;;
13571;SDS011;6857;53.484;10.216;2023-02-28T12:26:46;2.90;;;1.40;;
13571;SDS011;6857;53.484;10.216;2023-02-28T12:29:47;3.13;;;1.10;;
13571;SDS011;6857;53.484;10.216;2023-02-28T12:32:06;2.40;;;1.53;;
13571;SDS011;6857;53.484;10.216;2023-02-28T12:35:17;4.17;;;1.40;;
13571;SDS011;6857;53.484;10.216;2023-02-28T12:37:32;1.93;;;1.33;;
13571;SDS011;6857;53.484;10.216;2023-02-28T12:40:01;1.30;;;1.00;;
13571;SDS011;6857;53.484;10.216;2023-02-28T12:42:48;4.33;;;1.43;;
13571;SDS011;6857;53.484;10.216;2023-02-28T12:45:19;2.43;;;1.30;;
13571;SDS011;6857;53.484;10.216;2023-02-28T12:47:47;3.13;;;1.53;;
13571;SDS011;6857;53.484;10.216;2023-02-28T12:50:14;4.60;;;1.83;;
13571;SDS011;6857;53.484;10.216;2023-02-28T12:52:55;3.37;;;1.60;;
13571;SDS011;6857;53.484;10.216;2023-02-28T12:55:33;2.93;;;1.63;;
13571;SDS011;6857;53.484;10.216;2023-02-28T13:00:37;3.77;;;1.27;;
13571;SDS011;6857;53.484;10.216;2023-02-28T13:06:05;2.43;;;1.50;;
13571;SDS011;6857;53.484;10.216;2023-02-28T13:11:00;8.00;;;3.00;;
13571;SDS011;6857;53.484;10.216;2023-02-28T13:13:27;2.60;;;1.67;;
13571;SDS011;6857;53.484;10.216;2023-02-28T13:16:08;3.70;;;1.50;;
13571;SDS011;6857;53.484;10.216;2023-02-28T13:18:36;2.67;;;1.50;;
13571;SDS011;6857;53.484;10.216;2023-02-28T13:21:02;3.70;;;1.60;;
13571;SDS011;6857;53.484;10.216;2023-02-28T13:26:16;2.20;;;1.33;;
13571;SDS011;6857;53.484;10.216;2023-02-28T13:31:14;3.07;;;1.60;;
13571;SDS011;6857;53.484;10.216;2023-02-28T13:39:03;2.20;;;1.40;;
13571;SDS011;6857;53.484;10.216;2023-02-28T13:46:26;3.77;;;2.03;;
13571;SDS011;6857;53.484;10.216;2023-02-28T13:48:52;2.93;;;1.40;;
13571;SDS011;6857;53.484;10.216;2023-02-28T13:51:38;3.40;;;1.50;;
13571;SDS011;6857;53.484;10.216;2023-02-28T13:54:16;4.30;;;1.60;;
13571;SDS011;6857;53.484;10.216;2023-02-28T13:56:52;2.67;;;1.57;;
13571;SDS011;6857;53.484;10.216;2023-02-28T13:59:29;3.00;;;1.30;;
13571;SDS011;6857;53.484;10.216;2023-02-28T14:02:21;2.87;;;1.63;;
13571;SDS011;6857;53.484;10.216;2023-02-28T14:07:38;1.97;;;1.43;;
13571;SDS011;6857;53.484;10.216;2023-02-28T14:10:07;3.50;;;1.30;;
13571;SDS011;6857;53.484;10.216;2023-02-28T14:12:52;2.53;;;1.50;;
13571;SDS011;6857;53.484;10.216;2023-02-28T14:15:39;2.37;;;1.50;;
13571;SDS011;6857;53.484;10.216;2023-02-28T14:18:15;2.37;;;1.80;;
13571;SDS011;6857;53.484;10.216;2023-02-28T14:20:42;2.20;;;1.67;;
13571;SDS011;6857;53.484;10.216;2023-02-28T14:26:02;2.60;;;1.50;;
13571;SDS011;6857;53.484;10.216;2023-02-28T14:28:40;4.33;;;1.67;;
13571;SDS011;6857;53.484;10.216;2023-02-28T14:31:10;3.73;;;1.57;;
13571;SDS011;6857;53.484;10.216;2023-02-28T14:38:32;2.07;;;1.53;;
13571;SDS011;6857;53.484;10.216;2023-02-28T14:41:00;4.10;;;1.70;;
13571;SDS011;6857;53.484;10.216;2023-02-28T14:43:27;4.17;;;1.53;;
13571;SDS011;6857;53.484;10.216;2023-02-28T14:45:57;3.40;;;1.80;;
13571;SDS011;6857;53.484;10.216;2023-02-28T14:48:24;4.23;;;1.70;;
13571;SDS011;6857;53.484;10.216;2023-02-28T14:50:51;7.00;;;2.37;;
13571;SDS011;6857;53.484;10.216;2023-02-28T14:53:18;3.23;;;1.60;;
13571;SDS011;6857;53.484;10.216;2023-02-28T14:55:46;3.23;;;1.73;;
13571;SDS011;6857;53.484;10.216;2023-02-28T14:58:25;1.97;;;1.63;;
13571;SDS011;6857;53.484;10.216;2023-02-28T15:00:52;6.17;;;1.80;;
13571;SDS011;6857;53.484;10.216;2023-02-28T15:05:51;2.53;;;1.50;;
13571;SDS011;6857;53.484;10.216;2023-02-28T15:08:18;3.67;;;1.50;;
13571;SDS011;6857;53.484;10.216;2023-02-28T15:13:17;3.03;;;1.60;;
13571;SDS011;6857;53.484;10.216;2023-02-28T15:15:48;3.50;;;1.50;;
13571;SDS011;6857;53.484;10.216;2023-02-28T15:20:47;2.30;;;1.47;;
13571;SDS011;6857;53.484;10.216;2023-02-28T15:23:14;3.10;;;1.50;;
13571;SDS011;6857;53.484;10.216;2023-02-28T15:25:41;2.10;;;1.30;;
13571;SDS011;6857;53.484;10.216;2023-02-28T15:28:10;4.03;;;2.17;;
13571;SDS011;6857;53.484;10.216;2023-02-28T15:30:38;2.50;;;1.73;;
13571;SDS011;6857;53.484;10.216;2023-02-28T15:33:06;3.70;;;2.93;;
13571;SDS011;6857;53.484;10.216;2023-02-28T15:35:33;4.50;;;1.47;;
13571;SDS011;6857;53.484;10.216;2023-02-28T15:40:45;13.33;;;6.70;;
13571;SDS011;6857;53.484;10.216;2023-02-28T15:43:31;2.67;;;1.60;;
13571;SDS011;6857;53.484;10.216;2023-02-28T15:45:59;5.47;;;3.23;;
13571;SDS011;6857;53.484;10.216;2023-02-28T15:48:29;4.50;;;3.00;;
13571;SDS011;6857;53.484;10.216;2023-02-28T15:50:57;2.80;;;1.90;;
13571;SDS011;6857;53.484;10.216;2023-02-28T15:53:24;2.90;;;1.80;;
13571;SDS011;6857;53.484;10.216;2023-02-28T15:55:52;3.70;;;1.63;;
13571;SDS011;6857;53.484;10.216;2023-02-28T15:58:18;3.03;;;1.80;;
13571;SDS011;6857;53.484;10.216;2023-02-28T16:00:45;2.33;;;1.90;;
13571;SDS011;6857;53.484;10.216;2023-02-28T16:03:26;3.13;;;1.70;;
13571;SDS011;6857;53.484;10.216;2023-02-28T16:08:37;2.53;;;1.60;;
13571;SDS011;6857;53.484;10.216;2023-02-28T16:11:03;3.53;;;2.23;;
13571;SDS011;6857;53.484;10.216;2023-02-28T16:13:29;3.30;;;2.00;;
13571;SDS011;6857;53.484;10.216;2023-02-28T16:15:55;4.90;;;2.13;;
13571;SDS011;6857;53.484;10.216;2023-02-28T16:18:21;4.10;;;2.00;;
13571;SDS011;6857;53.484;10.216;2023-02-28T16:20:47;2.97;;;2.20;;
13571;SDS011;6857;53.484;10.216;2023-02-28T16:23:13;5.90;;;2.10;;
13571;SDS011;6857;53.484;10.216;2023-02-28T16:25:40;1.90;;;1.63;;
13571;SDS011;6857;53.484;10.216;2023-02-28T16:28:20;3.87;;;2.10;;
13571;SDS011;6857;53.484;10.216;2023-02-28T16:30:50;3.13;;;1.97;;
13571;SDS011;6857;53.484;10.216;2023-02-28T16:33:17;4.80;;;1.90;;
13571;SDS011;6857;53.484;10.216;2023-02-28T16:35:43;7.03;;;2.80;;
13571;SDS011;6857;53.484;10.216;2023-02-28T16:38:09;2.80;;;1.93;;